Terminal Aerodrome Forecast
Issued by NWS

Home | Current Version | Previous Version | Text Only | Print | Product List | Glossary On
Versions: 1 2 3 4 5 6 7 8 9 10 11 12 13 14 15 16 17 18 19 20 21
163
FTUS46 KLOX 251724
TAFSBA
TAF
KSBA 251724Z 2518/2618 21008KT P6SM SCT050
     FM252000 27012G20KT P6SM SCT050
     FM260300 35008KT P6SM SCT150
     FM260900 VRB03KT P6SM SCT150
     FM261200 VRB03KT 4SM BR SCT150
     FM261700 VRB03KT P6SM BKN150=

USA.gov is the U.S. government's official web portal to all federal, state and local government web resources and services.